Radford, Illinois
Current Conditions -  °F | °C
As of 7:54 AM on Tuesday 27 Jan 2015 (Local Time) from KDEC Reporting Station
Haze Haze  
Wind Chill: 25°   Ceiling: 900
Heat Index: 31°   Visibility: 4mi
Dew Point: 29°   Wind: 6mph
Humidity: 92%   Direction: 360°N
Pressure: 30.06"   Gusts: NA
Location:  39.6032°N, 88.9855°W
Report Text: KDEC 271354Z 36005KT 4SM BR BKN009 OVC036 M01/M02 A3006 RMK AO2 SLP186 T10061017
Loading
Personal Weather Stations






























Interactive Weather Map New forecast layout! Learn more

10-Day Weather Forecast

Advertisements
Track Severe Weather on mobile